Time;durP1;ratioP1;P1;durP2;ratioP2;P2;SDS_P1;SDS_P2;PMS_P1;PMS_P2;Temp;Humidity;BMP_temperature;BMP_pressure;BME280_temperature;BME280_humidity;BME280_pressure;Samples;Min_cycle;Max_cycle;Signal;HPM_P1;HPM_P2
2022/06/15 00:00:06;;;;;;;6.57;3.07;;;22.50;42.80;;;;;;5087007;28;20562;-88
2022/06/15 00:02:34;;;;;;;3.33;3.03;;;22.40;42.80;;;;;;5087500;27;20466;-87
2022/06/15 00:05:03;;;;;;;3.83;3.00;;;22.40;42.60;;;;;;5088852;28;20474;-88
2022/06/15 00:07:30;;;;;;;3.20;2.80;;;22.40;42.70;;;;;;5073218;28;20560;-88
2022/06/15 00:09:57;;;;;;;3.63;3.17;;;22.40;42.80;;;;;;5089473;28;20497;-88
2022/06/15 00:12:24;;;;;;;3.77;3.30;;;22.30;43.40;;;;;;5106407;27;20462;-88
2022/06/15 00:14:51;;;;;;;3.27;2.97;;;22.30;44.10;;;;;;5089168;27;20443;-88
2022/06/15 00:17:18;;;;;;;3.00;2.80;;;22.20;44.20;;;;;;5078910;27;20469;-88
2022/06/15 00:19:45;;;;;;;2.90;2.70;;;22.20;44.70;;;;;;5090435;27;20481;-88
2022/06/15 00:22:13;;;;;;;3.73;3.33;;;22.20;44.90;;;;;;5080485;28;20466;-88
2022/06/15 00:24:40;;;;;;;3.67;3.37;;;22.10;44.70;;;;;;5071004;27;20451;-88
2022/06/15 00:27:07;;;;;;;3.53;3.23;;;22.00;44.60;;;;;;5066526;27;21130;-88
2022/06/15 00:29:37;;;;;;;3.30;3.00;;;22.00;44.20;;;;;;5076574;27;20538;-88
2022/06/15 00:32:05;;;;;;;4.23;3.93;;;22.00;44.00;;;;;;5075698;28;20527;-88
2022/06/15 00:34:32;;;;;;;3.77;3.43;;;21.90;43.60;;;;;;5073532;28;20453;-88
2022/06/15 00:37:01;;;;;;;4.00;2.93;;;21.80;43.70;;;;;;5075718;28;20458;-90
2022/06/15 00:39:29;;;;;;;3.50;3.20;;;21.80;44.10;;;;;;5059479;27;20465;-89
2022/06/15 00:41:56;;;;;;;3.80;3.40;;;21.80;44.30;;;;;;5070176;27;20516;-88
2022/06/15 00:44:37;;;;;;;3.43;3.07;;;21.70;44.10;;;;;;5070174;28;21077;-89
2022/06/15 00:47:12;;;;;;;3.17;2.77;;;21.60;43.90;;;;;;5070873;28;20458;-88
2022/06/15 00:49:44;;;;;;;4.30;3.30;;;21.60;43.90;;;;;;5056173;27;20996;-88
2022/06/15 00:52:13;;;;;;;3.40;3.10;;;21.60;44.00;;;;;;5089012;28;20481;-88
2022/06/15 00:54:45;;;;;;;3.60;3.30;;;21.50;44.30;;;;;;5085144;28;20545;-88
2022/06/15 00:57:13;;;;;;;4.70;3.30;;;21.40;44.30;;;;;;5089852;27;20857;-89
2022/06/15 00:59:47;;;;;;;4.23;3.77;;;21.40;44.50;;;;;;5074226;28;20538;-88
2022/06/15 01:02:14;;;;;;;3.50;3.20;;;21.30;44.60;;;;;;5089501;28;20459;-88
2022/06/15 01:04:45;;;;;;;3.47;3.17;;;21.30;44.40;;;;;;5070028;28;20446;-89
2022/06/15 01:07:28;;;;;;;3.70;2.80;;;21.30;44.90;;;;;;5096209;28;21044;-89
2022/06/15 01:10:05;;;;;;;3.67;3.10;;;21.20;44.60;;;;;;5056639;28;20974;-90
2022/06/15 01:12:38;;;;;;;5.97;3.97;;;21.20;44.20;;;;;;5069141;28;20435;-88
2022/06/15 01:15:26;;;;;;;3.47;3.17;;;21.00;44.40;;;;;;5104649;28;20489;-88
2022/06/15 01:18:06;;;;;;;4.17;3.43;;;20.90;44.70;;;;;;5071707;28;20443;-89
2022/06/15 01:20:56;;;;;;;3.93;3.00;;;20.90;44.80;;;;;;5070326;28;20435;-89
2022/06/15 01:23:52;;;;;;;4.17;3.13;;;20.70;44.80;;;;;;5097608;28;20466;-89
2022/06/15 01:26:50;;;;;;;5.40;3.37;;;20.70;45.20;;;;;;5084634;28;20471;-88
2022/06/15 01:29:32;;;;;;;4.97;3.00;;;20.60;44.90;;;;;;5085209;28;20450;-88
2022/06/15 01:32:08;;;;;;;4.93;3.60;;;20.40;45.10;;;;;;5063576;28;20442;-88
2022/06/15 01:34:46;;;;;;;3.80;3.40;;;20.40;45.10;;;;;;5055784;28;20434;-86
2022/06/15 01:37:21;;;;;;;3.13;2.93;;;20.40;44.20;;;;;;5059560;28;20478;-88
2022/06/15 01:39:55;;;;;;;6.53;3.97;;;20.40;44.40;;;;;;5071664;28;20454;-88
2022/06/15 01:42:26;;;;;;;3.90;3.43;;;20.40;44.40;;;;;;5070052;28;20462;-89
2022/06/15 01:44:57;;;;;;;3.30;3.10;;;20.50;44.90;;;;;;5071643;27;20507;-88
2022/06/15 01:47:28;;;;;;;3.57;3.27;;;20.50;44.50;;;;;;5074908;27;20454;-89
2022/06/15 01:49:59;;;;;;;2.97;2.77;;;20.50;44.50;;;;;;5066963;28;20451;-88
2022/06/15 01:52:30;;;;;;;4.17;2.70;;;20.50;44.70;;;;;;5074231;28;20439;-88
2022/06/15 01:55:03;;;;;;;2.77;2.50;;;20.50;44.10;;;;;;5068011;28;20807;-88
2022/06/15 01:57:33;;;;;;;5.33;3.03;;;20.40;44.10;;;;;;5097583;27;20603;-88
2022/06/15 02:00:04;;;;;;;2.80;2.60;;;20.50;43.90;;;;;;5056628;27;20449;-88
2022/06/15 02:02:50;;;;;;;3.53;3.30;;;20.40;44.10;;;;;;5077310;27;20553;-89
2022/06/15 02:05:24;;;;;;;4.50;3.30;;;20.40;43.90;;;;;;5071728;28;20482;-88
2022/06/15 02:07:55;;;;;;;2.97;2.77;;;20.40;43.90;;;;;;5075924;27;20464;-88
2022/06/15 02:10:27;;;;;;;3.70;3.40;;;20.40;43.80;;;;;;5090289;28;20451;-88
2022/06/15 02:13:01;;;;;;;4.17;3.00;;;20.40;43.80;;;;;;5070714;27;20838;-88
2022/06/15 02:15:30;;;;;;;3.70;2.97;;;20.40;43.90;;;;;;5088483;28;20454;-88
2022/06/15 02:18:07;;;;;;;3.07;2.77;;;20.40;44.10;;;;;;5073437;28;20510;-90
2022/06/15 02:20:38;;;;;;;2.20;2.10;;;20.30;43.90;;;;;;5087151;28;20526;-87
2022/06/15 02:23:10;;;;;;;3.53;2.90;;;20.30;43.60;;;;;;5073533;27;21131;-88
2022/06/15 02:25:44;;;;;;;4.40;3.00;;;20.30;43.60;;;;;;5072044;28;20565;-89
2022/06/15 02:28:14;;;;;;;12.00;3.73;;;20.20;43.80;;;;;;5074998;28;20529;-88
2022/06/15 02:30:44;;;;;;;3.27;2.87;;;20.20;44.20;;;;;;5091672;28;20449;-89
2022/06/15 02:33:24;;;;;;;3.57;3.23;;;20.10;44.00;;;;;;5073476;27;20534;-88
2022/06/15 02:35:52;;;;;;;3.10;2.60;;;20.10;44.10;;;;;;5087210;28;20517;-88
2022/06/15 02:38:19;;;;;;;2.70;2.50;;;20.00;44.00;;;;;;5088616;27;20447;-88
2022/06/15 02:40:46;;;;;;;7.23;3.00;;;20.00;44.00;;;;;;5085345;27;20966;-89
2022/06/15 02:43:18;;;;;;;4.93;2.83;;;20.00;44.20;;;;;;5098142;27;21048;-88
2022/06/15 02:45:47;;;;;;;3.70;3.30;;;19.90;44.20;;;;;;5055457;27;20459;-90
2022/06/15 02:48:17;;;;;;;5.40;3.67;;;19.90;44.20;;;;;;5062162;27;20439;-88
2022/06/15 02:50:51;;;;;;;6.37;3.30;;;19.80;44.80;;;;;;5073019;28;20536;-88
2022/06/15 02:53:21;;;;;;;3.60;3.30;;;19.80;45.20;;;;;;5063456;28;21372;-90
2022/06/15 02:55:50;;;;;;;3.80;3.03;;;19.80;45.60;;;;;;5104308;28;20971;-86
2022/06/15 02:58:24;;;;;;;3.90;3.50;;;19.80;45.90;;;;;;5092157;27;20455;-88
2022/06/15 03:00:53;;;;;;;3.17;2.93;;;19.80;46.20;;;;;;5088080;27;20449;-91
2022/06/15 03:03:26;;;;;;;3.40;3.10;;;19.80;46.40;;;;;;5075365;27;20478;-88
2022/06/15 03:06:02;;;;;;;3.83;3.03;;;19.70;46.40;;;;;;5065917;28;20502;-87
2022/06/15 03:08:29;;;;;;;3.60;3.07;;;19.70;46.30;;;;;;5076374;28;20539;-88
2022/06/15 03:11:05;;;;;;;3.57;3.27;;;19.80;46.60;;;;;;5075904;27;20446;-89
2022/06/15 03:13:32;;;;;;;5.77;4.17;;;19.70;47.00;;;;;;5074028;27;20486;-90
2022/06/15 03:16:02;;;;;;;4.00;3.70;;;19.70;47.40;;;;;;5091674;27;20464;-86
2022/06/15 03:18:31;;;;;;;4.83;3.77;;;19.70;47.40;;;;;;5093472;27;20452;-89
2022/06/15 03:21:04;;;;;;;5.13;3.53;;;19.70;47.60;;;;;;5092560;28;20500;-90
2022/06/15 03:23:32;;;;;;;3.80;3.40;;;19.60;47.90;;;;;;5072152;28;20537;-88
2022/06/15 03:26:03;;;;;;;4.20;3.90;;;19.60;47.70;;;;;;5088575;27;20473;-86
2022/06/15 03:28:35;;;;;;;4.10;3.80;;;19.60;47.90;;;;;;5069639;27;20886;-88
2022/06/15 03:31:03;;;;;;;3.73;3.43;;;19.60;47.90;;;;;;5059863;28;20454;-88
2022/06/15 03:33:33;;;;;;;3.57;3.27;;;19.50;47.90;;;;;;5072517;28;20980;-89
2022/06/15 03:36:03;;;;;;;4.10;3.73;;;19.50;47.90;;;;;;5087747;28;21088;-89
2022/06/15 03:38:32;;;;;;;3.73;3.20;;;19.50;47.80;;;;;;5050252;27;20451;-88
2022/06/15 03:41:10;;;;;;;5.53;3.50;;;19.50;47.40;;;;;;5072291;28;20458;-89
2022/06/15 03:43:38;;;;;;;4.47;3.33;;;19.50;47.00;;;;;;5075085;27;20475;-88
2022/06/15 03:46:06;;;;;;;4.30;3.03;;;19.40;47.10;;;;;;5082384;27;20461;-88
2022/06/15 03:48:38;;;;;;;4.47;3.43;;;19.40;47.20;;;;;;5066880;27;20432;-90
2022/06/15 03:51:06;;;;;;;5.00;3.10;;;19.30;47.20;;;;;;5062662;28;20514;-88
2022/06/15 03:53:39;;;;;;;4.10;3.17;;;19.30;47.30;;;;;;5090704;27;20466;-88
2022/06/15 03:56:08;;;;;;;6.47;3.33;;;19.30;47.40;;;;;;5070048;28;20462;-89
2022/06/15 03:58:35;;;;;;;4.13;3.70;;;19.30;47.50;;;;;;5072887;27;20539;-88
2022/06/15 04:01:02;;;;;;;5.40;3.60;;;19.30;47.80;;;;;;5083662;28;20566;-88
2022/06/15 04:03:32;;;;;;;5.50;3.63;;;19.30;47.80;;;;;;5091860;27;20455;-88
2022/06/15 04:06:06;;;;;;;3.87;3.50;;;19.30;48.30;;;;;;5084857;28;20475;-88
2022/06/15 04:08:43;;;;;;;3.57;3.23;;;19.30;48.20;;;;;;5074627;28;20534;-89
2022/06/15 04:14:21;;;;;;;10.37;4.40;;;19.30;48.40;;;;;;5081746;28;20466;-88
2022/06/15 04:16:59;;;;;;;4.90;3.67;;;19.30;49.10;;;;;;5064097;28;20982;-89
2022/06/15 04:20:31;;;;;;;4.40;4.00;;;19.20;49.30;;;;;;5052323;28;20436;-90
2022/06/15 04:22:35;;;;;;;4.23;3.83;;;19.10;49.60;;;;;;5062856;27;20565;-89
2022/06/15 04:25:06;;;;;;;4.47;4.07;;;19.20;50.00;;;;;;5052569;28;20462;-89
2022/06/15 04:27:36;;;;;;;4.07;3.77;;;19.20;50.20;;;;;;5080900;27;20508;-89
2022/06/15 04:30:05;;;;;;;7.50;3.60;;;19.20;50.30;;;;;;5064820;27;20736;-88
2022/06/15 04:32:33;;;;;;;4.40;4.00;;;19.20;50.20;;;;;;5072519;28;20972;-88
2022/06/15 04:35:03;;;;;;;4.20;3.80;;;19.20;50.40;;;;;;5075683;27;20468;-90
2022/06/15 04:37:31;;;;;;;4.10;3.80;;;19.30;50.30;;;;;;5090706;27;20497;-89
2022/06/15 04:40:08;;;;;;;5.13;3.83;;;19.30;50.50;;;;;;5069177;27;20521;-89
2022/06/15 04:42:36;;;;;;;4.63;3.83;;;19.30;50.30;;;;;;5068937;27;20466;-88
2022/06/15 04:45:05;;;;;;;3.83;3.50;;;19.30;50.10;;;;;;5063066;27;21394;-88
2022/06/15 04:47:34;;;;;;;4.70;3.90;;;19.40;50.40;;;;;;5054573;27;20466;-88
2022/06/15 04:50:04;;;;;;;3.83;3.50;;;19.30;50.20;;;;;;5082354;28;20447;-88
2022/06/15 04:52:36;;;;;;;4.60;3.87;;;19.30;50.30;;;;;;5085413;28;20451;-89
2022/06/15 04:55:04;;;;;;;4.17;3.77;;;19.30;50.40;;;;;;5070791;28;20514;-88
2022/06/15 04:57:33;;;;;;;3.70;3.40;;;19.30;50.80;;;;;;5047990;28;20475;-88
2022/06/15 05:00:02;;;;;;;7.40;4.07;;;19.30;50.60;;;;;;5068362;28;20891;-88
2022/06/15 05:02:31;;;;;;;6.53;3.63;;;19.30;50.80;;;;;;5051783;28;20531;-88
2022/06/15 05:04:59;;;;;;;6.23;4.13;;;19.40;50.30;;;;;;5071949;28;20465;-87
2022/06/15 05:07:29;;;;;;;5.87;4.30;;;19.40;50.50;;;;;;5065517;28;21262;-88
2022/06/15 05:09:57;;;;;;;4.73;4.00;;;19.40;50.50;;;;;;5091852;28;20505;-88
2022/06/15 05:12:24;;;;;;;4.07;3.67;;;19.40;50.70;;;;;;5048809;28;20443;-88
2022/06/15 05:14:55;;;;;;;5.90;4.30;;;19.50;50.90;;;;;;5046904;28;20456;-89
2022/06/15 05:17:24;;;;;;;4.57;3.60;;;19.50;51.10;;;;;;5067009;28;20830;-88
2022/06/15 05:19:52;;;;;;;8.53;3.83;;;19.40;52.00;;;;;;5081870;28;20524;-89
2022/06/15 05:22:19;;;;;;;4.13;3.73;;;19.50;51.60;;;;;;5071646;27;20561;-90
2022/06/15 05:24:47;;;;;;;5.93;4.17;;;19.60;51.30;;;;;;5075539;27;20525;-88
2022/06/15 05:27:17;;;;;;;4.57;3.73;;;19.70;50.90;;;;;;5086187;27;20506;-89
2022/06/15 05:29:44;;;;;;;4.67;4.27;;;19.70;50.80;;;;;;5086602;27;20451;-90
2022/06/15 05:32:18;;;;;;;3.90;3.60;;;19.80;51.00;;;;;;5070179;27;20461;-89
2022/06/15 05:34:45;;;;;;;4.27;3.80;;;19.80;51.20;;;;;;5086435;28;20870;-85
2022/06/15 05:37:12;;;;;;;4.63;4.23;;;19.80;51.00;;;;;;5053903;28;20457;-89
2022/06/15 05:39:40;;;;;;;3.83;3.53;;;19.90;50.70;;;;;;5085786;28;20446;-87
2022/06/15 05:42:07;;;;;;;4.13;3.50;;;20.00;50.70;;;;;;5071676;27;21294;-86
2022/06/15 05:44:42;;;;;;;5.00;4.13;;;20.10;50.40;;;;;;5094376;27;20497;-87
2022/06/15 05:47:11;;;;;;;5.50;3.97;;;20.10;50.20;;;;;;5064024;27;20479;-88
2022/06/15 05:50:07;;;;;;;5.90;3.60;;;20.20;50.70;;;;;;5065800;28;20467;-87
2022/06/15 05:52:45;;;;;;;5.40;3.70;;;20.20;50.30;;;;;;5055857;27;20453;-86
2022/06/15 05:55:12;;;;;;;6.37;3.47;;;20.10;50.80;;;;;;5051634;28;21108;-88
2022/06/15 05:57:39;;;;;;;4.50;3.87;;;20.20;50.40;;;;;;5085359;28;20449;-87
2022/06/15 06:00:09;;;;;;;4.87;3.50;;;20.30;50.30;;;;;;5078752;27;20454;-88
2022/06/15 06:02:42;;;;;;;8.73;4.30;;;20.40;49.70;;;;;;5101444;27;20489;-88
2022/06/15 06:05:11;;;;;;;9.20;3.43;;;20.60;49.60;;;;;;5082082;28;20455;-87
2022/06/15 06:07:38;;;;;;;5.37;2.93;;;20.80;48.90;;;;;;5060612;28;20527;-89
2022/06/15 06:10:06;;;;;;;3.77;3.10;;;20.90;48.90;;;;;;5056396;27;20458;-86
2022/06/15 06:12:33;;;;;;;13.80;4.00;;;21.10;48.90;;;;;;5068590;27;20446;-87
2022/06/15 06:14:59;;;;;;;6.93;3.03;;;21.20;48.30;;;;;;5061764;28;20439;-85
2022/06/15 06:17:27;;;;;;;6.50;3.60;;;21.30;48.10;;;;;;5090649;27;20477;-87
2022/06/15 06:19:53;;;;;;;4.70;2.87;;;21.40;47.20;;;;;;5083745;27;20668;-87
2022/06/15 06:22:22;;;;;;;3.60;3.30;;;21.40;47.60;;;;;;5084815;27;20970;-87
2022/06/15 06:24:49;;;;;;;4.67;3.03;;;21.40;47.10;;;;;;5068280;28;21128;-87
2022/06/15 06:27:16;;;;;;;10.90;3.50;;;21.50;46.70;;;;;;5088161;27;20473;-87
2022/06/15 06:29:43;;;;;;;6.23;3.33;;;21.50;47.10;;;;;;5096752;27;20431;-86
2022/06/15 06:32:13;;;;;;;6.00;3.40;;;21.50;46.90;;;;;;5099348;27;20461;-87
2022/06/15 06:34:40;;;;;;;13.33;2.90;;;21.80;47.10;;;;;;5101188;27;20444;-87
2022/06/15 06:37:07;;;;;;;3.40;3.10;;;22.10;46.50;;;;;;5075951;28;21063;-87
2022/06/15 06:39:36;;;;;;;9.20;3.47;;;22.10;46.30;;;;;;5084542;28;20694;-85
2022/06/15 06:42:05;;;;;;;3.47;3.17;;;22.20;46.30;;;;;;5102834;27;20465;-87
2022/06/15 06:44:36;;;;;;;5.40;2.90;;;22.30;45.80;;;;;;5087880;28;21086;-87
2022/06/15 06:47:03;;;;;;;3.80;3.13;;;22.40;46.20;;;;;;5081317;27;21171;-88
2022/06/15 06:49:30;;;;;;;5.30;3.50;;;22.50;46.00;;;;;;5075784;27;20971;-86
2022/06/15 06:51:58;;;;;;;4.90;3.10;;;22.70;45.80;;;;;;5068114;27;20508;-87
2022/06/15 06:54:25;;;;;;;5.93;3.57;;;22.70;45.00;;;;;;5100941;27;20446;-89
2022/06/15 06:56:54;;;;;;;8.33;3.60;;;22.70;44.80;;;;;;5101897;27;20829;-88
2022/06/15 06:59:21;;;;;;;4.20;3.27;;;23.00;44.40;;;;;;5100567;27;20435;-87
2022/06/15 07:01:48;;;;;;;8.00;4.10;;;23.30;44.10;;;;;;5101143;27;20442;-87
2022/06/15 07:04:17;;;;;;;7.13;2.93;;;23.50;44.40;;;;;;5096829;27;20955;-87
2022/06/15 07:06:45;;;;;;;4.23;2.63;;;23.80;44.50;;;;;;5102622;27;20477;-86
2022/06/15 07:09:12;;;;;;;4.30;3.50;;;23.90;43.20;;;;;;5101992;27;20443;-87
2022/06/15 07:11:42;;;;;;;5.67;3.17;;;23.90;43.40;;;;;;5100143;27;20449;-87
2022/06/15 07:14:10;;;;;;;6.60;3.33;;;23.90;43.50;;;;;;5101942;27;20442;-86
2022/06/15 07:16:38;;;;;;;3.70;3.10;;;23.90;43.40;;;;;;5099447;27;20482;-86
2022/06/15 07:19:05;;;;;;;9.90;3.30;;;23.80;43.60;;;;;;5098843;27;20961;-88
2022/06/15 07:21:32;;;;;;;3.93;3.47;;;24.00;43.60;;;;;;5102300;27;20626;-87
2022/06/15 07:24:00;;;;;;;3.40;3.20;;;24.40;43.20;;;;;;5080696;27;20571;-88
2022/06/15 07:26:30;;;;;;;10.17;3.47;;;24.70;42.90;;;;;;5085053;27;20474;-88
2022/06/15 07:28:57;;;;;;;3.27;3.00;;;24.70;41.80;;;;;;5083451;28;21570;-86
2022/06/15 07:31:28;;;;;;;3.70;3.13;;;24.80;42.10;;;;;;5101154;27;20458;-86
2022/06/15 07:33:56;;;;;;;3.97;3.63;;;25.10;41.60;;;;;;5101074;27;20442;-86
2022/06/15 07:36:24;;;;;;;8.13;3.90;;;25.20;42.20;;;;;;5091224;27;20466;-86
2022/06/15 07:38:51;;;;;;;4.87;3.37;;;25.30;41.20;;;;;;5096482;27;20478;-85
2022/06/15 07:41:19;;;;;;;3.83;3.53;;;25.30;40.90;;;;;;5077438;28;20453;-87
2022/06/15 07:43:46;;;;;;;4.97;4.00;;;25.40;41.30;;;;;;5098252;27;20928;-86
2022/06/15 07:46:13;;;;;;;6.00;3.57;;;25.50;40.80;;;;;;5098037;27;20982;-87
2022/06/15 07:51:30;;;;;;;5.90;3.57;;;25.60;40.70;;;;;;5073188;28;20559;-88
2022/06/15 07:53:58;;;;;;;4.70;3.57;;;25.80;40.50;;;;;;5099580;27;20534;-86
2022/06/15 07:56:25;;;;;;;8.40;3.90;;;26.00;40.20;;;;;;5102582;27;20499;-87
2022/06/15 07:58:52;;;;;;;5.40;3.83;;;26.30;39.90;;;;;;5101515;27;20454;-86
2022/06/15 08:01:19;;;;;;;5.37;3.17;;;26.40;39.40;;;;;;5085840;27;20451;-87
2022/06/15 08:03:48;;;;;;;7.03;4.07;;;26.70;40.10;;;;;;5084155;28;20503;-87
2022/06/15 08:06:16;;;;;;;4.80;3.83;;;26.80;39.60;;;;;;5049398;28;21002;-87
2022/06/15 08:08:44;;;;;;;10.13;4.17;;;27.10;39.70;;;;;;5066314;27;20443;-85
2022/06/15 08:11:11;;;;;;;6.77;3.77;;;27.20;38.20;;;;;;5079801;28;20458;-86
2022/06/15 08:13:38;;;;;;;5.07;4.40;;;27.30;38.70;;;;;;5083087;27;20478;-88
2022/06/15 08:16:06;;;;;;;6.93;3.60;;;27.40;38.40;;;;;;5081419;28;20459;-88
2022/06/15 08:18:36;;;;;;;9.53;3.90;;;27.40;38.30;;;;;;5102992;27;20452;-86
2022/06/15 08:21:06;;;;;;;5.93;4.20;;;27.30;37.80;;;;;;5102978;27;20646;-87
2022/06/15 08:23:36;;;;;;;7.40;4.30;;;27.50;37.90;;;;;;5083811;27;20454;-87
2022/06/15 08:26:12;;;;;;;6.10;3.90;;;27.60;37.20;;;;;;5100602;27;20482;-86
2022/06/15 08:28:43;;;;;;;9.83;4.00;;;27.90;38.20;;;;;;5074473;28;20477;-87
2022/06/15 08:31:11;;;;;;;4.70;3.70;;;28.20;35.80;;;;;;5097207;27;20945;-87
2022/06/15 08:33:38;;;;;;;4.27;3.87;;;28.50;36.60;;;;;;5065772;27;20457;-87
2022/06/15 08:36:09;;;;;;;7.57;3.83;;;28.80;35.50;;;;;;5066239;27;20474;-87
2022/06/15 08:38:36;;;;;;;6.63;3.77;;;29.00;34.70;;;;;;5063699;28;20455;-87
2022/06/15 08:41:05;;;;;;;4.60;4.20;;;29.20;32.90;;;;;;5079134;28;20450;-87
2022/06/15 08:43:44;;;;;;;5.13;3.63;;;29.30;32.80;;;;;;5083436;28;20474;-87
2022/06/15 08:46:29;;;;;;;4.77;4.03;;;29.30;32.30;;;;;;5050035;28;20512;-87
2022/06/15 08:49:12;;;;;;;7.43;4.50;;;29.30;33.10;;;;;;5047815;28;20454;-86
2022/06/15 08:51:43;;;;;;;4.70;3.63;;;29.20;31.50;;;;;;5102396;27;20521;-87
2022/06/15 08:54:17;;;;;;;6.57;3.80;;;29.50;34.10;;;;;;5098713;27;20537;-87
2022/06/15 08:56:47;;;;;;;5.20;4.20;;;29.70;32.20;;;;;;5100007;28;20976;-88
2022/06/15 08:59:20;;;;;;;8.40;3.80;;;29.80;31.50;;;;;;5079011;28;21073;-87
2022/06/15 09:01:52;;;;;;;4.43;4.13;;;29.80;30.90;;;;;;5057906;28;20447;-87
2022/06/15 09:04:31;;;;;;;4.67;3.60;;;29.70;31.80;;;;;;5100693;27;21011;-87
2022/06/15 09:07:16;;;;;;;5.20;3.90;;;29.80;31.00;;;;;;5078682;27;20478;-85
2022/06/15 09:09:59;;;;;;;7.67;3.97;;;29.70;30.90;;;;;;5072944;28;20819;-85
2022/06/15 09:12:55;;;;;;;5.13;4.17;;;29.80;32.20;;;;;;5100218;28;20467;-88
2022/06/15 09:15:34;;;;;;;5.83;4.13;;;29.80;30.20;;;;;;5096634;28;20911;-87
2022/06/15 09:18:05;;;;;;;11.77;4.67;;;30.00;31.60;;;;;;5097927;28;20439;-87
2022/06/15 09:20:38;;;;;;;6.10;3.80;;;30.40;30.60;;;;;;5079737;28;20447;-88
2022/06/15 09:23:11;;;;;;;7.50;4.10;;;30.50;30.90;;;;;;5102522;28;20452;-87
2022/06/15 09:25:44;;;;;;;8.77;3.93;;;30.50;29.30;;;;;;5099926;28;20466;-85
2022/06/15 09:28:18;;;;;;;5.90;3.90;;;30.60;29.20;;;;;;5097116;28;20666;-87
2022/06/15 09:30:45;;;;;;;7.50;3.70;;;30.40;29.60;;;;;;5102132;28;20450;-87
2022/06/15 09:33:19;;;;;;;7.07;4.10;;;30.70;30.00;;;;;;5101630;28;20453;-86
2022/06/15 09:35:51;;;;;;;9.13;4.37;;;31.00;29.00;;;;;;5080835;28;20994;-88
2022/06/15 09:38:21;;;;;;;5.53;3.70;;;30.90;29.10;;;;;;5113674;27;20454;-87
2022/06/15 09:40:53;;;;;;;4.70;4.30;;;30.90;28.90;;;;;;5083349;28;20533;-87
2022/06/15 09:43:42;;;;;;;4.40;4.10;;;30.90;29.30;;;;;;5099475;28;20446;-86
2022/06/15 09:46:16;;;;;;;7.40;4.23;;;30.90;30.50;;;;;;5095324;28;20881;-88
2022/06/15 09:48:55;;;;;;;4.40;3.90;;;31.20;29.20;;;;;;5099812;28;20438;-88
2022/06/15 09:51:31;;;;;;;8.20;3.93;;;31.60;28.60;;;;;;5098914;28;20454;-88
2022/06/15 09:54:10;;;;;;;6.17;4.03;;;31.70;28.80;;;;;;5083942;28;20446;-86
2022/06/15 09:56:37;;;;;;;6.00;4.17;;;31.90;28.20;;;;;;5100888;28;20461;-85
2022/06/15 09:59:09;;;;;;;4.33;3.73;;;32.20;28.10;;;;;;5099267;28;20529;-87
2022/06/15 10:01:39;;;;;;;4.90;4.40;;;32.50;28.60;;;;;;5094978;28;20972;-88
2022/06/15 10:04:10;;;;;;;7.10;4.37;;;32.20;27.60;;;;;;5100677;28;20930;-89
2022/06/15 10:06:44;;;;;;;6.03;4.00;;;32.30;27.20;;;;;;5085453;27;20485;-86
2022/06/15 10:09:16;;;;;;;4.40;3.97;;;32.40;26.90;;;;;;5102409;27;20443;-87
2022/06/15 10:11:46;;;;;;;4.00;3.67;;;32.30;26.90;;;;;;5099887;27;20499;-86
2022/06/15 10:14:23;;;;;;;7.30;3.80;;;32.00;27.50;;;;;;5100063;27;20445;-88
2022/06/15 10:16:55;;;;;;;4.17;3.77;;;32.00;27.10;;;;;;5097157;27;20470;-87
2022/06/15 10:19:24;;;;;;;4.33;3.47;;;32.30;28.50;;;;;;5104706;27;20442;-88
2022/06/15 10:21:54;;;;;;;5.37;3.40;;;32.70;27.00;;;;;;5097929;27;21053;-87
2022/06/15 10:24:27;;;;;;;4.00;3.60;;;32.90;26.10;;;;;;5098492;27;20446;-86
2022/06/15 10:27:22;;;;;;;4.80;3.73;;;33.00;25.20;;;;;;5099724;27;20494;-88
2022/06/15 10:30:02;;;;;;;3.70;3.40;;;32.80;24.10;;;;;;5102872;27;20919;-87
2022/06/15 10:32:31;;;;;;;5.77;3.53;;;33.10;25.50;;;;;;5092905;27;20455;-86
2022/06/15 10:35:14;;;;;;;4.10;3.70;;;33.30;24.50;;;;;;5099984;27;21239;-87
2022/06/15 10:37:45;;;;;;;7.37;3.50;;;33.40;24.50;;;;;;5100747;27;20471;-87
2022/06/15 10:40:24;;;;;;;6.13;3.07;;;33.70;25.40;;;;;;5075174;27;20451;-86
2022/06/15 10:42:56;;;;;;;3.97;3.57;;;33.80;24.30;;;;;;5098257;27;20467;-88
2022/06/15 10:45:27;;;;;;;4.13;3.73;;;34.10;24.20;;;;;;5098860;27;20470;-86
2022/06/15 10:48:00;;;;;;;4.50;4.10;;;33.90;23.80;;;;;;5101014;27;20536;-87
2022/06/15 10:50:31;;;;;;;7.93;3.20;;;34.00;24.50;;;;;;5098738;27;20462;-88
2022/06/15 10:53:01;;;;;;;4.67;2.70;;;34.20;24.20;;;;;;5100207;27;20665;-88
2022/06/15 11:04:13;;;;;;;6.03;3.20;;;35.30;23.30;;;;;;5098281;27;20446;-86
2022/06/15 11:06:45;;;;;;;4.60;3.47;;;35.30;21.90;;;;;;5099439;27;20484;-87
2022/06/15 11:09:30;;;;;;;5.27;3.47;;;35.10;22.10;;;;;;5100005;27;20443;-87
2022/06/15 11:12:01;;;;;;;3.37;3.10;;;34.50;23.00;;;;;;5098310;27;20451;-87
2022/06/15 11:14:33;;;;;;;4.43;3.40;;;34.60;23.90;;;;;;5064519;28;20450;-88
2022/06/15 11:20:23;;;;;;;3.43;3.13;;;34.50;22.20;;;;;;5099469;27;20546;-88
2022/06/15 11:22:54;;;;;;;7.07;2.60;;;34.40;21.70;;;;;;5101875;27;20454;-86
2022/06/15 11:25:26;;;;;;;2.90;2.70;;;34.40;22.60;;;;;;5098040;27;21210;-88
2022/06/15 11:28:00;;;;;;;4.00;2.83;;;34.80;22.70;;;;;;5101708;27;20483;-88
2022/06/15 11:30:31;;;;;;;3.07;2.87;;;34.60;22.30;;;;;;5074124;27;20965;-88
2022/06/15 11:33:01;;;;;;;4.27;3.03;;;34.70;22.60;;;;;;5101811;27;21226;-87
2022/06/15 11:35:40;;;;;;;3.33;3.13;;;34.40;22.50;;;;;;5103154;27;20432;-89
2022/06/15 11:38:16;;;;;;;3.93;3.60;;;34.60;23.90;;;;;;5059858;28;20485;-87
2022/06/15 11:40:50;;;;;;;3.40;3.13;;;34.70;22.70;;;;;;5070222;27;20504;-87
2022/06/15 11:43:22;;;;;;;4.10;3.13;;;34.80;22.10;;;;;;5098595;27;20956;-87
2022/06/15 11:46:09;;;;;;;4.73;3.37;;;34.70;23.50;;;;;;5096081;27;20473;-87
2022/06/15 11:48:49;;;;;;;5.13;3.73;;;34.50;23.10;;;;;;5065909;27;20520;-87
2022/06/15 11:51:30;;;;;;;4.30;3.50;;;34.40;23.00;;;;;;5071939;27;21328;-86
2022/06/15 11:54:09;;;;;;;3.00;2.80;;;34.40;23.40;;;;;;5078734;27;20455;-87
2022/06/15 11:56:46;;;;;;;4.13;3.23;;;34.70;22.20;;;;;;5097021;27;20465;-87
2022/06/15 11:59:26;;;;;;;3.60;3.07;;;34.80;22.20;;;;;;5083106;27;21463;-87
2022/06/15 12:01:59;;;;;;;4.17;2.80;;;35.10;22.40;;;;;;5083236;27;20441;-87
2022/06/15 12:04:48;;;;;;;3.20;3.00;;;35.30;22.20;;;;;;5083381;27;21052;-88
2022/06/15 12:07:24;;;;;;;2.90;2.70;;;35.60;22.20;;;;;;5099195;27;20483;-86
2022/06/15 12:10:05;;;;;;;4.00;3.50;;;36.00;22.10;;;;;;5098018;27;20445;-86
2022/06/15 12:12:40;;;;;;;3.70;3.40;;;35.70;21.20;;;;;;5099019;27;21034;-86
2022/06/15 12:15:29;;;;;;;6.80;2.90;;;35.70;22.90;;;;;;5100916;27;20492;-87
2022/06/15 12:18:03;;;;;;;3.37;3.10;;;35.90;21.60;;;;;;5099817;27;20443;-88
2022/06/15 12:20:45;;;;;;;4.63;3.10;;;35.80;20.90;;;;;;5084771;27;20790;-87
2022/06/15 12:23:29;;;;;;;5.27;3.63;;;35.80;21.20;;;;;;5100658;27;20525;-87
2022/06/15 12:26:04;;;;;;;5.60;2.63;;;36.00;20.70;;;;;;5083515;28;20570;-88
2022/06/15 12:28:38;;;;;;;3.30;3.03;;;35.50;20.90;;;;;;5060763;28;20927;-88
2022/06/15 12:31:18;;;;;;;4.30;3.13;;;35.30;21.20;;;;;;5066622;28;20443;-88
2022/06/15 12:33:51;;;;;;;5.20;2.63;;;35.60;20.40;;;;;;5061042;27;20441;-90
2022/06/15 12:36:24;;;;;;;3.40;3.10;;;35.50;21.00;;;;;;5101841;27;20544;-87
2022/06/15 12:38:58;;;;;;;2.77;2.57;;;35.70;21.10;;;;;;5101947;27;20518;-88
2022/06/15 12:45:29;;;;;;;4.33;2.80;;;35.80;20.80;;;;;;5091093;27;20438;-88
2022/06/15 12:48:01;;;;;;;3.20;2.93;;;35.60;20.70;;;;;;5100930;27;20458;-88
2022/06/15 12:50:48;;;;;;;2.73;2.53;;;35.80;19.80;;;;;;5061671;27;20438;-89
2022/06/15 12:53:42;;;;;;;4.30;2.60;;;35.60;20.30;;;;;;5103673;27;20439;-87
2022/06/15 12:56:18;;;;;;;2.77;2.57;;;35.80;21.60;;;;;;5097975;27;20473;-87
2022/06/15 12:58:56;;;;;;;2.93;2.73;;;36.10;20.70;;;;;;5066716;28;20427;-87
2022/06/15 13:01:27;;;;;;;4.10;2.30;;;36.10;21.10;;;;;;5099010;28;20596;-86
2022/06/15 13:04:07;;;;;;;4.13;2.53;;;36.50;20.80;;;;;;5097470;28;20439;-86
2022/06/15 13:06:36;;;;;;;2.50;2.40;;;36.70;19.20;;;;;;5082054;28;20469;-88
2022/06/15 13:09:18;;;;;;;3.30;3.10;;;36.70;20.10;;;;;;5099238;27;20839;-86
2022/06/15 13:12:01;;;;;;;3.23;2.93;;;36.60;19.40;;;;;;5081636;27;20539;-87
2022/06/15 13:14:33;;;;;;;3.27;2.97;;;35.80;19.70;;;;;;5091433;27;20442;-87
2022/06/15 13:17:07;;;;;;;4.37;3.00;;;35.30;20.40;;;;;;5084912;28;20549;-88
2022/06/15 13:19:40;;;;;;;4.00;2.87;;;35.40;21.80;;;;;;5089253;28;20449;-86
2022/06/15 13:22:13;;;;;;;4.40;2.83;;;35.80;19.80;;;;;;5072166;28;20435;-87
2022/06/15 13:25:05;;;;;;;3.37;2.73;;;36.00;21.00;;;;;;5082491;28;21164;-86
2022/06/15 13:27:36;;;;;;;2.90;2.50;;;36.30;20.60;;;;;;5102006;28;20494;-87
2022/06/15 13:30:26;;;;;;;3.00;2.40;;;36.50;20.30;;;;;;5080942;28;20447;-87
2022/06/15 13:32:59;;;;;;;4.40;2.80;;;36.50;19.50;;;;;;5056581;28;20439;-89